createdAt,value
2022-11-03T00:03:27.729Z,6.77
2022-11-03T00:08:29.533Z,6.69
2022-11-03T00:13:38.709Z,6.62
2022-11-03T00:18:40.659Z,6.60
2022-11-03T00:23:44.007Z,6.57
2022-11-03T00:28:47.703Z,6.52
2022-11-03T00:33:50.438Z,6.45
2022-11-03T00:38:52.990Z,6.38
2022-11-03T00:43:55.289Z,6.31
2022-11-03T00:48:57.119Z,6.23
2022-11-03T00:54:01.104Z,6.14
2022-11-03T00:59:05.192Z,6.05
2022-11-03T01:04:26.868Z,5.96
2022-11-03T01:09:31.642Z,5.88
2022-11-03T01:14:36.459Z,5.78
2022-11-03T01:19:38.340Z,5.71
2022-11-03T01:24:41.744Z,5.64
2022-11-03T01:29:44.056Z,5.58
2022-11-03T01:34:45.981Z,5.52
2022-11-03T01:39:47.786Z,5.47
2022-11-03T01:44:49.774Z,5.41
2022-11-03T01:50:05.980Z,5.33
2022-11-03T01:55:13.572Z,5.29
2022-11-03T02:00:15.952Z,5.23
2022-11-03T02:05:21.772Z,5.18
2022-11-03T02:10:25.270Z,5.13
2022-11-03T02:15:28.956Z,5.07
2022-11-03T02:20:31.997Z,5.01
2022-11-03T02:25:36.532Z,4.95
2022-11-03T02:31:00.021Z,4.91
2022-11-03T02:36:05.897Z,4.89
2022-11-03T02:41:09.231Z,4.86
2022-11-03T02:46:13.433Z,4.84
2022-11-03T02:51:15.227Z,4.82
2022-11-03T02:56:23.217Z,4.78
2022-11-03T03:01:47.555Z,4.75
2022-11-03T03:06:57.777Z,4.72
2022-11-03T03:12:02.470Z,4.70
2022-11-03T03:17:24.414Z,4.71
2022-11-03T03:22:36.764Z,4.72
2022-11-03T03:27:43.442Z,4.68
2022-11-03T03:32:49.134Z,4.62
2022-11-03T03:37:54.943Z,4.55
2022-11-03T03:42:58.255Z,4.48
2022-11-03T03:48:00.764Z,4.42
2022-11-03T03:53:05.308Z,4.37
2022-11-03T03:58:08.476Z,4.33
2022-11-03T04:03:19.917Z,4.28
2022-11-03T04:08:21.879Z,4.25
2022-11-03T04:13:42.453Z,4.21
2022-11-03T04:19:02.963Z,4.17
2022-11-03T04:24:04.970Z,4.13
2022-11-03T04:29:09.660Z,4.10
2022-11-03T04:34:13.063Z,4.08
2022-11-03T04:39:21.210Z,4.05
2022-11-03T04:44:23.083Z,4.03
2022-11-03T04:49:25.333Z,4.00
2022-11-03T04:54:27.274Z,3.96
2022-11-03T04:59:29.452Z,3.94
2022-11-03T05:04:31.193Z,3.91
2022-11-03T05:09:33.000Z,3.88
2022-11-03T05:14:34.823Z,3.86
2022-11-03T05:19:41.264Z,3.85
2022-11-03T05:24:44.117Z,3.83
2022-11-03T05:29:47.270Z,3.82
2022-11-03T05:34:51.424Z,3.81
2022-11-03T05:39:59.587Z,3.81
2022-11-03T05:45:15.884Z,3.81
2022-11-03T05:50:22.176Z,3.82
2022-11-03T05:55:37.254Z,3.84
2022-11-03T06:00:48.160Z,3.87
2022-11-03T06:05:51.926Z,3.91
2022-11-03T06:10:57.081Z,3.95
2022-11-03T06:16:21.155Z,3.99
2022-11-03T06:21:25.585Z,4.07
2022-11-03T06:26:28.850Z,4.17
2022-11-03T06:31:33.129Z,4.30
2022-11-03T06:36:37.371Z,4.46
2022-11-03T06:41:39.961Z,4.62
2022-11-03T06:46:41.829Z,4.82
2022-11-03T06:51:43.644Z,5.14
2022-11-03T06:56:45.467Z,5.43
2022-11-03T07:01:55.403Z,5.58
2022-11-03T07:07:03.091Z,5.69
2022-11-03T07:12:14.998Z,5.83
2022-11-03T07:17:22.126Z,6.09
2022-11-03T07:22:26.115Z,6.33
2022-11-03T07:27:31.245Z,6.43
2022-11-03T07:32:34.730Z,6.46
2022-11-03T07:37:36.851Z,6.50
2022-11-03T07:42:38.751Z,6.67
2022-11-03T07:47:44.017Z,6.85
2022-11-03T07:52:45.798Z,7.05
2022-11-03T07:57:48.301Z,7.24
2022-11-03T08:02:59.200Z,7.47
2022-11-03T08:08:01.063Z,7.69
2022-11-03T08:13:02.961Z,7.93
2022-11-03T08:18:04.882Z,8.17
2022-11-03T08:23:24.612Z,8.44
2022-11-03T08:28:27.451Z,8.66
2022-11-03T08:38:36.479Z,9.13
2022-11-03T08:43:38.282Z,9.37
2022-11-03T08:48:40.280Z,9.61
2022-11-03T08:53:42.999Z,9.89
2022-11-03T08:58:44.944Z,10.16
2022-11-03T09:03:46.919Z,10.44
2022-11-03T09:14:10.803Z,10.98
2022-11-03T09:19:12.662Z,11.22
2022-11-03T09:24:14.469Z,11.43
2022-11-03T09:29:16.277Z,11.65
2022-11-03T09:34:18.112Z,11.87
2022-11-03T09:39:19.980Z,12.03
2022-11-03T09:44:21.838Z,12.21
2022-11-03T09:49:23.896Z,12.37
2022-11-03T09:54:27.195Z,12.51
2022-11-03T09:59:30.522Z,12.62
2022-11-03T10:04:32.491Z,12.80
2022-11-03T10:09:34.622Z,12.95
2022-11-03T10:14:37.067Z,13.09
2022-11-03T10:19:38.885Z,13.23
2022-11-03T10:24:40.702Z,13.35
2022-11-03T10:29:45.391Z,13.46
2022-11-03T10:34:52.615Z,13.58
2022-11-03T10:39:57.255Z,13.68
2022-11-03T10:45:19.987Z,13.73
2022-11-03T10:50:26.910Z,13.79
2022-11-03T10:55:30.478Z,13.90
2022-11-03T11:00:33.369Z,13.99
2022-11-03T11:05:35.317Z,14.10
2022-11-03T11:10:37.187Z,14.13
2022-11-03T11:15:50.968Z,14.26
2022-11-03T11:20:52.748Z,14.38
2022-11-03T11:26:09.947Z,14.48
2022-11-03T11:31:27.133Z,14.56
2022-11-03T11:36:29.113Z,14.62
2022-11-03T11:42:08.695Z,14.71
2022-11-03T11:47:27.940Z,14.86
2022-11-03T11:52:30.297Z,14.99
2022-11-03T11:57:35.346Z,15.07
2022-11-03T12:02:37.183Z,15.10
2022-11-03T12:07:38.956Z,15.08
2022-11-03T12:12:40.723Z,15.11
2022-11-03T12:17:42.512Z,15.11
2022-11-03T12:22:44.366Z,15.12
2022-11-03T12:27:46.349Z,15.14
2022-11-03T12:32:48.355Z,15.11
2022-11-03T12:37:50.139Z,15.09
2022-11-03T12:42:52.056Z,15.08
2022-11-03T12:47:53.829Z,15.10
2022-11-03T12:52:55.627Z,15.13
2022-11-03T12:57:57.494Z,15.08
2022-11-03T13:02:59.313Z,15.02
2022-11-03T13:08:01.104Z,14.95
2022-11-03T13:13:02.923Z,14.92
2022-11-03T13:18:14.069Z,14.87
2022-11-03T13:23:18.856Z,14.73
2022-11-03T13:28:24.148Z,14.59
2022-11-03T13:33:26.045Z,14.43
2022-11-03T13:38:27.832Z,14.24
2022-11-03T13:43:29.612Z,14.04
2022-11-03T14:04:44.603Z,13.71
2022-11-03T14:09:47.153Z,13.67
2022-11-03T14:14:48.949Z,13.62
2022-11-03T14:19:52.839Z,13.56
2022-11-03T14:24:57.127Z,13.48
2022-11-03T14:29:59.006Z,13.38
2022-11-03T14:35:00.911Z,13.26
2022-11-03T14:40:03.159Z,13.16
2022-11-03T14:45:05.412Z,13.10
2022-11-03T14:50:07.747Z,13.07
2022-11-03T14:55:09.664Z,13.06
2022-11-03T15:00:11.840Z,13.04
2022-11-03T15:05:33.631Z,12.95
2022-11-03T15:10:35.427Z,12.79
2022-11-03T15:15:37.334Z,12.64
2022-11-03T15:20:39.177Z,12.53
2022-11-03T15:25:41.047Z,12.43
2022-11-03T15:30:42.926Z,12.34
2022-11-03T15:35:45.344Z,12.26
2022-11-03T15:40:47.177Z,12.18
2022-11-03T15:45:48.932Z,12.03
2022-11-03T15:50:50.946Z,11.87
2022-11-03T15:55:52.843Z,11.72
2022-11-03T16:00:54.723Z,11.60
2022-11-03T16:05:56.716Z,11.51
2022-11-03T16:10:58.606Z,11.42
2022-11-03T16:16:00.502Z,11.34
2022-11-03T16:21:02.489Z,11.24
2022-11-03T16:26:05.746Z,11.15
2022-11-03T16:31:07.549Z,11.06
2022-11-03T16:36:09.460Z,11.02
2022-11-03T16:41:11.822Z,10.98
2022-11-03T16:46:13.675Z,10.92
2022-11-03T16:51:15.509Z,10.79
2022-11-03T16:56:17.350Z,10.66
2022-11-03T17:01:19.303Z,10.52
2022-11-03T17:06:21.367Z,10.47
2022-11-03T17:11:49.388Z,10.50
2022-11-03T17:16:51.313Z,10.60
2022-11-03T17:21:53.770Z,10.68
2022-11-03T17:27:07.568Z,10.73
2022-11-03T17:32:22.159Z,10.81
2022-11-03T17:37:25.200Z,10.88
2022-11-03T17:42:28.617Z,10.94
2022-11-03T17:47:31.853Z,11.03
2022-11-03T17:52:34.116Z,11.13
2022-11-03T17:57:36.574Z,11.20
2022-11-03T18:02:40.600Z,11.22
2022-11-03T18:07:42.943Z,11.24
2022-11-03T18:13:07.509Z,11.27
2022-11-03T18:18:14.664Z,11.28
2022-11-03T18:23:30.515Z,11.29
2022-11-03T18:28:32.345Z,11.32
2022-11-03T18:33:36.139Z,11.30
2022-11-03T18:38:41.466Z,11.30
2022-11-03T18:43:43.269Z,11.30
2022-11-03T18:48:45.099Z,11.27
2022-11-03T18:53:46.975Z,11.26
2022-11-03T18:58:52.639Z,11.24
2022-11-03T19:03:56.395Z,11.22
2022-11-03T19:08:59.807Z,11.20
2022-11-03T19:14:01.827Z,11.15
2022-11-03T19:19:04.164Z,11.09
2022-11-03T19:24:06.268Z,11.05
2022-11-03T19:29:14.750Z,11.02
2022-11-03T19:34:20.047Z,10.99
2022-11-03T19:39:36.083Z,10.95
2022-11-03T19:44:37.960Z,10.91
2022-11-03T19:49:39.810Z,10.87
2022-11-03T19:54:48.756Z,10.81
2022-11-03T19:59:50.539Z,10.75
2022-11-03T20:04:52.326Z,10.67
2022-11-03T20:09:54.137Z,10.55
2022-11-03T20:14:55.975Z,10.41
2022-11-03T20:19:57.993Z,10.27
2022-11-03T20:25:03.323Z,10.17
2022-11-03T20:30:05.942Z,10.08
2022-11-03T20:35:13.448Z,10.03
2022-11-03T20:40:19.466Z,10.01
2022-11-03T20:45:23.314Z,9.98
2022-11-03T20:50:25.872Z,9.93
2022-11-03T20:55:27.662Z,9.89
2022-11-03T21:00:31.735Z,9.90
2022-11-03T21:05:33.607Z,9.91
2022-11-03T21:10:36.035Z,9.91
2022-11-03T21:16:23.004Z,9.91
2022-11-03T21:21:21.495Z,9.93
2022-11-03T21:26:23.386Z,9.93
2022-11-03T21:31:25.234Z,9.94
2022-11-03T21:36:27.022Z,9.93
2022-11-03T21:41:47.758Z,9.93
2022-11-03T21:46:49.536Z,9.93
2022-11-03T21:51:51.397Z,9.94
2022-11-03T21:56:53.262Z,9.96
2022-11-03T22:01:55.403Z,9.97
2022-11-03T22:06:59.102Z,9.97
2022-11-03T22:12:05.673Z,9.98
2022-11-03T22:17:07.540Z,10.00
2022-11-03T22:22:33.707Z,10.03
2022-11-03T22:27:35.543Z,10.08
2022-11-03T22:32:39.917Z,10.16
2022-11-03T22:37:42.071Z,10.32
2022-11-03T22:43:03.590Z,10.46
2022-11-03T22:48:09.475Z,10.61
2022-11-03T22:53:30.498Z,10.66
2022-11-03T22:58:33.374Z,10.60
2022-11-03T23:03:37.270Z,10.44
2022-11-03T23:08:41.163Z,10.29
2022-11-03T23:13:44.879Z,10.12
2022-11-03T23:19:06.472Z,9.92
2022-11-03T23:24:27.165Z,9.71
2022-11-03T23:29:29.462Z,9.53
2022-11-03T23:34:31.283Z,9.42
2022-11-03T23:39:33.081Z,9.30
2022-11-03T23:44:53.636Z,9.19
2022-11-03T23:49:55.428Z,9.08
2022-11-03T23:54:57.312Z,8.99
2022-11-03T23:59:59.157Z,8.94
